createdAt,value
2018-06-11T00:00:08.531Z,18.08
2018-06-11T00:01:08.565Z,18.08
2018-06-11T00:02:08.540Z,18.25
2018-06-11T00:03:08.559Z,18.12
2018-06-11T00:04:08.267Z,18.14
2018-06-11T00:05:08.266Z,18.1
2018-06-11T00:06:08.521Z,18.1
2018-06-11T00:07:08.539Z,18.14
2018-06-11T00:08:08.508Z,18.08
2018-06-11T00:09:08.269Z,18.14
2018-06-11T00:10:08.268Z,18.11
2018-06-11T00:11:08.273Z,17.95
2018-06-11T00:12:08.247Z,17.99
2018-06-11T00:13:08.516Z,18.07
2018-06-11T00:14:08.481Z,17.96
2018-06-11T00:15:08.253Z,17.93
2018-06-11T00:16:07.968Z,17.92
2018-06-11T00:17:08.503Z,17.95
2018-06-11T00:18:07.969Z,17.89
2018-06-11T00:19:08.498Z,17.93
2018-06-11T00:20:08.214Z,17.86
2018-06-11T00:21:08.205Z,17.92
2018-06-11T00:22:08.461Z,17.89
2018-06-11T00:23:08.610Z,17.89
2018-06-11T00:24:08.226Z,17.9
2018-06-11T00:25:08.448Z,17.9
2018-06-11T00:26:08.198Z,17.84
2018-06-11T00:27:08.434Z,17.93
2018-06-11T00:28:08.479Z,17.95
2018-06-11T00:29:08.178Z,17.95
2018-06-11T00:30:08.204Z,17.86
2018-06-11T00:31:08.414Z,17.81
2018-06-11T00:32:08.461Z,17.87
2018-06-11T00:33:08.422Z,17.84
2018-06-11T00:34:08.423Z,17.84
2018-06-11T00:35:08.445Z,17.78
2018-06-11T00:36:08.396Z,17.75
2018-06-11T00:37:08.399Z,17.71
2018-06-11T00:38:08.407Z,17.89
2018-06-11T00:39:08.165Z,17.75
2018-06-11T00:40:08.160Z,17.79
2018-06-11T00:41:08.393Z,17.81
2018-06-11T00:42:08.393Z,17.81
2018-06-11T00:43:08.387Z,17.79
2018-06-11T00:44:08.400Z,17.74
2018-06-11T00:45:08.381Z,17.79
2018-06-11T00:46:08.138Z,17.74
2018-06-11T00:47:08.109Z,17.75
2018-06-11T00:48:08.388Z,17.78
2018-06-11T00:49:08.352Z,17.74
2018-06-11T00:50:08.367Z,17.74
2018-06-11T00:51:08.342Z,17.7
2018-06-11T00:52:08.378Z,17.74
2018-06-11T00:53:08.114Z,17.66
2018-06-11T00:54:08.097Z,17.62
2018-06-11T00:55:08.333Z,17.64
2018-06-11T00:56:07.835Z,17.63
2018-06-11T00:57:08.094Z,17.66
2018-06-11T00:58:07.827Z,17.64
2018-06-11T00:59:08.310Z,17.66
2018-06-11T01:00:08.345Z,17.66
2018-06-11T01:01:08.063Z,17.68
2018-06-11T01:02:08.339Z,17.59
2018-06-11T01:03:08.046Z,17.56
2018-06-11T01:04:08.088Z,17.58
2018-06-11T01:05:08.040Z,17.56
2018-06-11T01:06:08.328Z,17.55
2018-06-11T01:07:08.281Z,17.62
2018-06-11T01:08:08.313Z,17.58
2018-06-11T01:09:08.305Z,17.62
2018-06-11T01:10:07.782Z,17.54
2018-06-11T01:11:08.274Z,17.51
2018-06-11T01:12:08.265Z,17.54
2018-06-11T01:13:08.292Z,17.54
2018-06-11T01:14:08.275Z,17.52
2018-06-11T01:15:08.031Z,17.51
2018-06-11T01:16:08.001Z,17.56
2018-06-11T01:17:08.273Z,17.55
2018-06-11T01:18:07.991Z,17.48
2018-06-11T01:19:08.274Z,17.44
2018-06-11T01:20:07.981Z,17.49
2018-06-11T01:21:08.010Z,17.51
2018-06-11T01:22:08.008Z,17.4
2018-06-11T01:23:08.261Z,17.46
2018-06-11T01:24:07.966Z,17.38
2018-06-11T01:25:07.987Z,17.44
2018-06-11T01:26:07.977Z,17.4
2018-06-11T01:27:07.972Z,17.33
2018-06-11T01:28:08.207Z,17.31
2018-06-11T01:29:08.235Z,17.36
2018-06-11T01:30:08.224Z,17.41
2018-06-11T01:31:08.218Z,17.34
2018-06-11T01:32:08.185Z,17.26
2018-06-11T01:33:08.226Z,17.38
2018-06-11T01:34:07.925Z,17.3
2018-06-11T01:35:08.215Z,17.3
2018-06-11T01:36:08.187Z,17.26
2018-06-11T01:37:07.942Z,17.28
2018-06-11T01:38:07.929Z,17.31
2018-06-11T01:39:07.907Z,17.36
2018-06-11T01:40:08.190Z,17.3
2018-06-11T01:41:08.188Z,17.22
2018-06-11T01:42:08.165Z,17.3
2018-06-11T01:43:07.891Z,17.31
2018-06-11T01:44:08.139Z,17.22
2018-06-11T01:45:07.650Z,17.25
2018-06-11T01:46:08.152Z,17.23
2018-06-11T01:47:08.166Z,17.22
2018-06-11T01:48:07.873Z,17.21
2018-06-11T01:49:08.151Z,17.07
2018-06-11T01:50:08.138Z,17.08
2018-06-11T01:51:07.607Z,17.22
2018-06-11T01:52:07.883Z,17.07
2018-06-11T01:53:07.599Z,17.15
2018-06-11T01:54:07.865Z,17.15
2018-06-11T01:55:07.841Z,17.15
2018-06-11T01:56:07.871Z,17.11
2018-06-11T01:57:08.119Z,17.15
2018-06-11T01:58:08.105Z,17.12
2018-06-11T01:59:07.826Z,17.16
2018-06-11T02:00:08.077Z,17.18
2018-06-11T02:01:08.105Z,17.08
2018-06-11T02:02:08.091Z,17.15
2018-06-11T02:03:08.105Z,17.08
2018-06-11T02:04:08.063Z,17.08
2018-06-11T02:05:08.084Z,17.15
2018-06-11T02:06:08.052Z,17.07
2018-06-11T02:07:07.825Z,17.11
2018-06-11T02:08:08.055Z,17.08
2018-06-11T02:09:07.815Z,17.07
2018-06-11T02:10:08.052Z,17.07
2018-06-11T02:11:08.067Z,17.11
2018-06-11T02:12:07.522Z,17.08
2018-06-11T02:13:07.829Z,17.12
2018-06-11T02:14:07.780Z,17.01
2018-06-11T02:15:08.048Z,17.06
2018-06-11T02:16:08.007Z,17.04
2018-06-11T02:17:08.033Z,17.11
2018-06-11T02:18:07.765Z,17
2018-06-11T02:19:08.037Z,17.06
2018-06-11T02:20:07.739Z,17.03
2018-06-11T02:21:08.024Z,17
2018-06-11T02:22:07.731Z,16.98
2018-06-11T02:23:07.760Z,17.01
2018-06-11T02:24:07.976Z,16.98
2018-06-11T02:25:08.007Z,17.01
2018-06-11T02:26:07.982Z,16.98
2018-06-11T02:27:08.000Z,17
2018-06-11T02:28:07.707Z,17.01
2018-06-11T02:29:07.959Z,16.98
2018-06-11T02:30:07.973Z,17.04
2018-06-11T02:31:07.980Z,17.01
2018-06-11T02:32:07.978Z,17
2018-06-11T02:33:07.944Z,17.01
2018-06-11T02:34:07.952Z,17.01
2018-06-11T02:35:07.694Z,16.93
2018-06-11T02:36:07.976Z,16.97
2018-06-11T02:37:07.926Z,16.96
2018-06-11T02:38:07.957Z,16.91
2018-06-11T02:39:07.676Z,16.94
2018-06-11T02:40:07.690Z,16.89
2018-06-11T02:41:07.932Z,16.94
2018-06-11T02:42:07.668Z,16.93
2018-06-11T02:43:07.421Z,16.98
2018-06-11T02:44:07.893Z,16.86
2018-06-11T02:45:07.896Z,16.88
2018-06-11T02:46:07.898Z,16.91
2018-06-11T02:47:07.913Z,16.97
2018-06-11T02:48:07.667Z,16.94
2018-06-11T02:49:07.885Z,16.97
2018-06-11T02:50:07.904Z,16.93
2018-06-11T02:51:07.866Z,16.91
2018-06-11T02:52:07.897Z,16.96
2018-06-11T02:53:07.865Z,16.97
2018-06-11T02:54:07.629Z,16.93
2018-06-11T02:55:07.851Z,16.93
2018-06-11T02:56:07.880Z,16.94
2018-06-11T02:57:07.837Z,16.93
2018-06-11T02:58:07.868Z,16.96
2018-06-11T02:59:07.826Z,16.94
2018-06-11T03:00:07.602Z,16.97
2018-06-11T03:01:07.853Z,16.96
2018-06-11T03:02:07.841Z,16.97
2018-06-11T03:03:07.562Z,17.06
2018-06-11T03:04:07.813Z,17.07
2018-06-11T03:05:07.837Z,17.14
2018-06-11T03:06:07.578Z,17.14
2018-06-11T03:07:07.797Z,17.12
2018-06-11T03:08:07.825Z,17.25
2018-06-11T03:09:07.792Z,17.33
2018-06-11T03:10:07.575Z,17.41
2018-06-11T03:11:07.778Z,17.44
2018-06-11T03:12:07.815Z,17.54
2018-06-11T03:13:07.777Z,17.7
2018-06-11T03:14:07.529Z,17.63
2018-06-11T03:15:07.769Z,17.74
2018-06-11T03:16:07.800Z,17.77
2018-06-11T03:17:07.784Z,17.9
2018-06-11T03:18:07.772Z,17.89
2018-06-11T03:19:07.772Z,17.9
2018-06-11T03:20:07.489Z,17.89
2018-06-11T03:21:07.515Z,18
2018-06-11T03:22:07.766Z,17.99
2018-06-11T03:23:07.512Z,18.17
2018-06-11T03:24:07.474Z,18.11
2018-06-11T03:25:07.240Z,18.15
2018-06-11T03:26:07.468Z,18.15
2018-06-11T03:27:07.748Z,18.17
2018-06-11T03:28:07.460Z,18.32
2018-06-11T03:29:07.747Z,18.35
2018-06-11T03:30:07.222Z,18.33
2018-06-11T03:31:07.742Z,18.42
2018-06-11T03:32:07.468Z,18.44
2018-06-11T03:33:07.725Z,18.39
2018-06-11T03:34:07.712Z,18.5
2018-06-11T03:35:07.691Z,18.39
2018-06-11T03:36:07.433Z,18.37
2018-06-11T03:37:07.716Z,18.37
2018-06-11T03:38:07.699Z,18.39
2018-06-11T03:39:07.713Z,18.45
2018-06-11T03:40:07.673Z,18.52
2018-06-11T03:41:07.695Z,18.55
2018-06-11T03:42:07.664Z,18.55
2018-06-11T03:43:07.695Z,18.67
2018-06-11T03:44:07.661Z,18.66
2018-06-11T03:45:07.703Z,18.84
2018-06-11T03:46:07.413Z,18.88
2018-06-11T03:47:07.430Z,18.94
2018-06-11T03:48:07.655Z,19.14
2018-06-11T03:49:07.397Z,19.29
2018-06-11T03:50:07.399Z,19.47
2018-06-11T03:51:07.673Z,19.74
2018-06-11T03:52:07.669Z,19.87
2018-06-11T03:53:07.398Z,19.88
2018-06-11T03:54:07.393Z,20.14
2018-06-11T03:55:07.642Z,20.29
2018-06-11T03:56:07.661Z,20.54
2018-06-11T03:57:07.628Z,20.66
2018-06-11T03:58:07.637Z,20.66
2018-06-11T03:59:07.660Z,20.8
2018-06-11T04:00:07.368Z,20.88
2018-06-11T04:01:07.650Z,20.99
2018-06-11T04:02:07.375Z,21.06
2018-06-11T04:03:07.406Z,21.07
2018-06-11T04:04:07.357Z,21.06
2018-06-11T04:05:07.108Z,21.09
2018-06-11T04:06:07.368Z,21.16
2018-06-11T04:07:07.382Z,21.25
2018-06-11T04:08:07.637Z,21.21
2018-06-11T04:09:07.357Z,21.25
2018-06-11T04:10:07.360Z,21.21
2018-06-11T04:11:07.515Z,21.21
2018-06-11T04:12:07.626Z,21.22
2018-06-11T04:13:07.348Z,21.19
2018-06-11T04:14:07.367Z,21.16
2018-06-11T04:15:07.342Z,21.21
2018-06-11T04:16:07.366Z,21.19
2018-06-11T04:17:07.597Z,21.31
2018-06-11T04:18:07.352Z,21.21
2018-06-11T04:19:07.585Z,21.22
2018-06-11T04:20:07.358Z,21.29
2018-06-11T04:21:07.610Z,21.21
2018-06-11T04:22:07.344Z,21.32
2018-06-11T04:23:07.335Z,21.25
2018-06-11T04:24:07.356Z,21.31
2018-06-11T04:25:07.328Z,21.34
2018-06-11T04:26:07.334Z,21.21
2018-06-11T04:27:07.574Z,21.34
2018-06-11T04:28:07.361Z,21.19
2018-06-11T04:29:07.573Z,21.21
2018-06-11T04:30:07.351Z,21.22
2018-06-11T04:31:07.315Z,21.21
2018-06-11T04:32:07.801Z,21.14
2018-06-11T04:33:07.308Z,21.17
2018-06-11T04:34:07.579Z,21.19
2018-06-11T04:35:07.566Z,21.1
2018-06-11T04:36:07.338Z,21.03
2018-06-11T04:37:07.580Z,21.04
2018-06-11T04:38:07.568Z,21.04
2018-06-11T04:39:07.545Z,20.98
2018-06-11T04:40:07.553Z,21.03
2018-06-11T04:41:07.572Z,21.1
2018-06-11T04:42:07.309Z,21.1
2018-06-11T04:43:07.573Z,21.12
2018-06-11T04:44:07.540Z,21.1
2018-06-11T04:45:07.312Z,21.12
2018-06-11T04:46:07.536Z,21.13
2018-06-11T04:47:07.309Z,21.16
2018-06-11T04:48:07.547Z,21.38
2018-06-11T04:49:07.301Z,21.49
2018-06-11T04:50:07.295Z,21.64
2018-06-11T04:51:07.530Z,21.74
2018-06-11T04:52:07.558Z,21.92
2018-06-11T04:53:07.296Z,21.96
2018-06-11T04:54:07.546Z,21.99
2018-06-11T04:55:07.041Z,22.09
2018-06-11T04:56:07.267Z,22.09
2018-06-11T04:57:07.548Z,22.15
2018-06-11T04:58:07.280Z,22.2
2018-06-11T04:59:07.302Z,22.2
2018-06-11T05:00:07.522Z,22.25
2018-06-11T05:01:07.551Z,22.25
2018-06-11T05:02:07.537Z,22.17
2018-06-11T05:03:07.261Z,22.21
2018-06-11T05:04:07.551Z,22.28
2018-06-11T05:05:07.505Z,22.3
2018-06-11T05:06:07.280Z,22.36
2018-06-11T05:07:07.506Z,22.36
2018-06-11T05:08:07.554Z,22.35
2018-06-11T05:09:07.295Z,22.36
2018-06-11T05:10:07.355Z,22.4
2018-06-11T05:11:07.258Z,22.4
2018-06-11T05:12:07.501Z,22.46
2018-06-11T05:13:07.279Z,22.43
2018-06-11T05:14:07.516Z,22.46
2018-06-11T05:15:07.502Z,22.43
2018-06-11T05:16:07.530Z,22.46
2018-06-11T05:17:07.504Z,22.46
2018-06-11T05:18:07.527Z,22.57
2018-06-11T05:19:07.497Z,22.67
2018-06-11T05:20:07.289Z,22.67
2018-06-11T05:21:07.492Z,22.73
2018-06-11T05:22:07.515Z,22.88
2018-06-11T05:23:07.238Z,23
2018-06-11T05:24:07.524Z,22.97
2018-06-11T05:25:07.520Z,23.04
2018-06-11T05:26:07.255Z,23.07
2018-06-11T05:27:07.486Z,23.07
2018-06-11T05:28:07.501Z,23.16
2018-06-11T05:29:07.520Z,23.28
2018-06-11T05:30:07.516Z,23.33
2018-06-11T05:31:07.524Z,23.4
2018-06-11T05:32:07.238Z,23.55
2018-06-11T05:33:07.261Z,23.61
2018-06-11T05:34:07.241Z,23.68
2018-06-11T05:35:07.523Z,23.72
2018-06-11T05:36:07.241Z,23.85
2018-06-11T05:37:07.272Z,23.88
2018-06-11T05:38:07.348Z,23.93
2018-06-11T05:39:07.522Z,24.09
2018-06-11T05:40:07.488Z,24.15
2018-06-11T05:41:07.542Z,24.15
2018-06-11T05:42:07.257Z,24.31
2018-06-11T05:43:07.493Z,24.25
2018-06-11T05:44:07.236Z,24.3
2018-06-11T05:45:07.527Z,24.39
2018-06-11T05:46:07.263Z,24.3
2018-06-11T05:47:07.269Z,24.22
2018-06-11T05:48:07.571Z,24.16
2018-06-11T05:49:07.522Z,24.12
2018-06-11T05:50:07.516Z,24.13
2018-06-11T05:51:07.545Z,24.2
2018-06-11T05:52:07.497Z,24.06
2018-06-11T05:53:07.531Z,24.13
2018-06-11T05:54:07.521Z,24.18
2018-06-11T05:55:07.538Z,24.27
2018-06-11T05:56:07.503Z,24.62
2018-06-11T05:57:07.520Z,24.91
2018-06-11T05:58:07.260Z,25.06
2018-06-11T05:59:07.028Z,25.2
2018-06-11T06:00:07.546Z,25.18
2018-06-11T06:01:07.544Z,25.15
2018-06-11T06:02:07.273Z,25.27
2018-06-11T06:03:07.261Z,25.33
2018-06-11T06:04:07.563Z,25.32
2018-06-11T06:05:07.275Z,25.36
2018-06-11T06:06:07.289Z,25.2
2018-06-11T06:07:07.300Z,25.15
2018-06-11T06:08:07.022Z,25.21
2018-06-11T06:09:07.560Z,25.18
2018-06-11T06:10:07.544Z,25.17
2018-06-11T06:11:07.313Z,25.25
2018-06-11T06:12:07.280Z,25.13
2018-06-11T06:13:07.568Z,25.05
2018-06-11T06:14:07.554Z,25.03
2018-06-11T06:15:07.599Z,25
2018-06-11T06:16:07.325Z,25.02
2018-06-11T06:17:07.550Z,25.1
2018-06-11T06:18:07.560Z,25.14
2018-06-11T06:19:07.548Z,25.15
2018-06-11T06:20:07.592Z,25.06
2018-06-11T06:21:07.560Z,24.95
2018-06-11T06:22:07.335Z,24.83
2018-06-11T06:23:07.567Z,24.49
2018-06-11T06:24:07.595Z,24.39
2018-06-11T06:25:07.314Z,24.27
2018-06-11T06:26:07.601Z,24.18
2018-06-11T06:27:07.618Z,24.08
2018-06-11T06:28:07.607Z,24.1
2018-06-11T06:29:08.013Z,23.93
2018-06-11T06:30:07.337Z,24.1
2018-06-11T06:31:07.573Z,24.12
2018-06-11T06:32:07.096Z,24.18
2018-06-11T06:33:07.330Z,24.34
2018-06-11T06:34:07.758Z,24.47
2018-06-11T06:35:07.584Z,24.6
2018-06-11T06:36:07.613Z,24.76
2018-06-11T06:37:07.336Z,24.83
2018-06-11T06:38:07.359Z,24.8
2018-06-11T06:39:07.598Z,24.9
2018-06-11T06:40:07.107Z,24.93
2018-06-11T06:41:07.337Z,25.05
2018-06-11T06:42:07.356Z,25.1
2018-06-11T06:43:07.342Z,25.08
2018-06-11T06:44:07.370Z,25.08
2018-06-11T06:45:07.364Z,25.14
2018-06-11T06:46:07.358Z,25.13
2018-06-11T06:47:07.635Z,25.27
2018-06-11T06:48:07.379Z,25.35
2018-06-11T06:49:07.618Z,25.45
2018-06-11T06:50:07.366Z,25.62
2018-06-11T06:51:07.617Z,25.8
2018-06-11T06:52:07.399Z,25.9
2018-06-11T06:53:07.372Z,26.21
2018-06-11T06:54:07.658Z,26.33
2018-06-11T06:55:07.366Z,26.39
2018-06-11T06:56:07.402Z,26.63
2018-06-11T06:57:07.399Z,26.66
2018-06-11T06:58:07.646Z,26.72
2018-06-11T06:59:07.428Z,26.88
2018-06-11T07:00:07.383Z,27.1
2018-06-11T07:01:07.651Z,27.4
2018-06-11T07:02:07.406Z,27.82
2018-06-11T07:03:07.685Z,28.17
2018-06-11T07:04:07.446Z,28.83
2018-06-11T07:05:07.672Z,29.37
2018-06-11T07:06:07.695Z,29.74
2018-06-11T07:07:07.683Z,29.9
2018-06-11T07:08:07.566Z,30.07
2018-06-11T07:09:07.441Z,30.31
2018-06-11T07:10:07.499Z,30.42
2018-06-11T07:11:07.902Z,30.54
2018-06-11T07:12:07.490Z,30.51
2018-06-11T07:13:07.717Z,30.57
2018-06-11T07:14:07.725Z,30.61
2018-06-11T07:15:07.749Z,30.61
2018-06-11T07:16:07.258Z,30.76
2018-06-11T07:17:07.542Z,30.92
2018-06-11T07:18:07.503Z,31.25
2018-06-11T07:19:07.777Z,31.7
2018-06-11T07:20:07.803Z,32.22
2018-06-11T07:21:07.830Z,32.69
2018-06-11T07:22:07.571Z,33.04
2018-06-11T07:23:09.093Z,33.15
2018-06-11T07:24:07.824Z,32.97
2018-06-11T07:25:07.326Z,32.88
2018-06-11T07:26:07.853Z,32.77
2018-06-11T07:27:07.362Z,32.79
2018-06-11T07:28:07.851Z,32.44
2018-06-11T07:29:07.884Z,32.19
2018-06-11T07:30:20.365Z,31.91
2018-06-11T07:31:07.933Z,31.66
2018-06-11T07:32:07.887Z,31.39
2018-06-11T07:33:07.932Z,31.13
2018-06-11T07:34:07.660Z,30.99
2018-06-11T07:35:08.000Z,30.86
2018-06-11T07:36:07.672Z,30.76
2018-06-11T07:37:07.681Z,30.64
2018-06-11T07:38:07.943Z,30.54
2018-06-11T07:39:07.977Z,30.58
2018-06-11T07:40:07.460Z,30.64
2018-06-11T07:41:08.170Z,30.76
2018-06-11T07:42:07.976Z,30.83
2018-06-11T07:43:07.713Z,30.97
2018-06-11T07:44:08.027Z,30.99
2018-06-11T07:45:08.007Z,30.97
2018-06-11T07:46:08.025Z,31.13
2018-06-11T07:47:08.008Z,31.32
2018-06-11T07:48:08.205Z,31.5
2018-06-11T07:49:08.018Z,31.7
2018-06-11T07:50:07.537Z,31.91
2018-06-11T07:51:07.804Z,32.28
2018-06-11T07:52:07.783Z,32.84
2018-06-11T07:53:08.051Z,33.11
2018-06-11T07:54:08.090Z,33.03
2018-06-11T07:55:08.103Z,32.69
2018-06-11T07:56:07.849Z,32.4
2018-06-11T07:57:08.103Z,32.11
2018-06-11T07:58:08.113Z,31.93
2018-06-11T07:59:07.888Z,31.69
2018-06-11T08:00:08.297Z,31.38
2018-06-11T08:01:07.872Z,31.35
2018-06-11T08:02:08.163Z,31.1
2018-06-11T08:03:08.141Z,31.01
2018-06-11T08:04:08.179Z,30.97
2018-06-11T08:05:08.159Z,30.89
2018-06-11T08:06:07.716Z,30.99
2018-06-11T08:07:08.172Z,31.09
2018-06-11T08:08:08.227Z,30.98
2018-06-11T08:09:08.246Z,30.84
2018-06-11T08:10:07.963Z,30.6
2018-06-11T08:11:08.217Z,30.39
2018-06-11T08:12:07.964Z,30.1
2018-06-11T08:13:08.252Z,29.82
2018-06-11T08:14:08.000Z,29.68
2018-06-11T08:15:08.246Z,29.58
2018-06-11T08:16:07.757Z,29.43
2018-06-11T08:17:07.767Z,29.37
2018-06-11T08:18:08.051Z,29.71
2018-06-11T08:19:07.751Z,29.97
2018-06-11T08:20:07.781Z,30.23
2018-06-11T08:21:08.279Z,30.64
2018-06-11T08:22:08.056Z,31.12
2018-06-11T08:23:08.029Z,31.5
2018-06-11T08:24:08.435Z,31.89
2018-06-11T08:25:08.079Z,32.14
2018-06-11T08:26:08.080Z,32.28
2018-06-11T08:27:08.332Z,32.33
2018-06-11T08:28:08.367Z,32.41
2018-06-11T08:29:08.105Z,32.35
2018-06-11T08:30:08.108Z,32.3
2018-06-11T08:31:08.358Z,32.26
2018-06-11T08:32:07.894Z,32.44
2018-06-11T08:33:08.128Z,32.69
2018-06-11T08:34:08.438Z,32.88
2018-06-11T08:35:08.158Z,33.16
2018-06-11T08:36:08.443Z,33.31
2018-06-11T08:37:08.165Z,33.5
2018-06-11T08:38:08.191Z,33.61
2018-06-11T08:39:08.184Z,33.63
2018-06-11T08:40:08.482Z,33.79
2018-06-11T08:41:08.208Z,33.98
2018-06-11T08:42:08.502Z,34.19
2018-06-11T08:43:08.265Z,34.25
2018-06-11T08:44:08.530Z,34.39
2018-06-11T08:45:08.517Z,34.31
2018-06-11T08:46:08.024Z,34.17
2018-06-11T08:47:09.800Z,33.88
2018-06-11T08:48:14.580Z,33.63
2018-06-11T08:49:08.302Z,33.53
2018-06-11T08:51:08.344Z,33.28
2018-06-11T08:52:09.872Z,33.31
2018-06-11T08:53:08.395Z,33.31
2018-06-11T08:54:08.365Z,33.34
2018-06-11T08:55:08.180Z,33.44
2018-06-11T08:56:08.394Z,33.63
2018-06-11T08:57:08.429Z,33.56
2018-06-11T08:58:08.397Z,33.66
2018-06-11T08:59:08.698Z,33.57
2018-06-11T09:00:08.949Z,33.6
2018-06-11T09:01:08.463Z,33.34
2018-06-11T09:02:08.212Z,33
2018-06-11T09:03:08.484Z,32.7
2018-06-11T09:05:08.763Z,32.38
2018-06-11T09:06:08.512Z,32.18
2018-06-11T09:07:08.582Z,32.03
2018-06-11T09:08:08.537Z,31.84
2018-06-11T09:09:08.778Z,31.48
2018-06-11T09:10:08.558Z,31.28
2018-06-11T09:11:08.550Z,31.04
2018-06-11T09:12:08.836Z,30.86
2018-06-11T09:13:08.556Z,30.6
2018-06-11T09:14:08.857Z,30.37
2018-06-11T09:15:08.600Z,30.11
2018-06-11T09:16:08.346Z,30.04
2018-06-11T09:17:08.846Z,29.97
2018-06-11T09:18:09.248Z,29.79
2018-06-11T09:19:08.849Z,29.67
2018-06-11T09:20:08.895Z,29.34
2018-06-11T09:21:08.893Z,29.14
2018-06-11T09:22:08.631Z,29
2018-06-11T09:23:08.631Z,28.9
2018-06-11T09:24:08.631Z,28.88
2018-06-11T09:25:08.790Z,28.64
2018-06-11T09:26:08.669Z,28.49
2018-06-11T09:27:08.944Z,28.51
2018-06-11T09:28:09.087Z,28.51
2018-06-11T09:29:08.714Z,28.36
2018-06-11T09:30:08.416Z,28.3
2018-06-11T09:31:09.197Z,28.31
2018-06-11T09:32:08.945Z,28.31
2018-06-11T09:33:08.978Z,28.41
2018-06-11T09:34:08.966Z,28.37
2018-06-11T09:35:08.512Z,28.41
2018-06-11T09:36:09.040Z,28.39
2018-06-11T09:37:08.742Z,28.33
2018-06-11T09:38:08.788Z,28.21
2018-06-11T09:39:09.021Z,28.19
2018-06-11T09:40:09.002Z,28.11
2018-06-11T09:41:08.757Z,28.15
2018-06-11T09:42:08.767Z,28.07
2018-06-11T09:43:09.034Z,28.02
2018-06-11T09:44:09.232Z,27.99
2018-06-11T09:45:09.051Z,28.02
2018-06-11T09:46:09.024Z,28.04
2018-06-11T09:47:08.826Z,28.03
2018-06-11T09:48:09.026Z,28.14
2018-06-11T09:49:08.866Z,28.07
2018-06-11T09:50:08.777Z,28.11
2018-06-11T09:51:08.801Z,28.15
2018-06-11T09:52:08.776Z,28
2018-06-11T09:53:08.787Z,27.87
2018-06-11T09:54:08.560Z,27.79
2018-06-11T09:55:08.826Z,27.72
2018-06-11T09:56:08.838Z,27.78
2018-06-11T09:57:09.106Z,27.69
2018-06-11T09:58:09.071Z,27.65
2018-06-11T09:59:08.837Z,27.63
2018-06-11T10:00:08.828Z,27.74
2018-06-11T10:01:08.842Z,27.78
2018-06-11T10:02:09.102Z,27.81
2018-06-11T10:03:09.120Z,27.99
2018-06-11T10:04:09.086Z,28.03
2018-06-11T10:05:09.137Z,28.24
2018-06-11T10:06:08.873Z,28.37
2018-06-11T10:07:09.144Z,28.4
2018-06-11T10:08:08.606Z,28.46
2018-06-11T10:09:08.931Z,28.49
2018-06-11T10:10:08.919Z,28.48
2018-06-11T10:11:09.176Z,28.56
2018-06-11T10:12:09.193Z,28.41
2018-06-11T10:13:08.900Z,28.36
2018-06-11T10:14:09.159Z,28.09
2018-06-11T10:15:09.154Z,27.96
2018-06-11T10:16:08.663Z,27.79
2018-06-11T10:17:08.648Z,27.69
2018-06-11T10:18:09.191Z,27.57
2018-06-11T10:19:09.276Z,27.63
2018-06-11T10:20:09.231Z,27.54
2018-06-11T10:21:08.915Z,27.6
2018-06-11T10:22:08.935Z,27.41
2018-06-11T10:23:09.189Z,27.43
2018-06-11T10:24:08.958Z,27.27
2018-06-11T10:25:09.216Z,27.31
2018-06-11T10:26:09.188Z,27.4
2018-06-11T10:27:09.230Z,27.5
2018-06-11T10:28:08.981Z,27.65
2018-06-11T10:29:09.240Z,27.78
2018-06-11T10:30:09.219Z,27.96
2018-06-11T10:31:09.233Z,28.02
2018-06-11T10:32:09.250Z,28.17
2018-06-11T10:33:08.976Z,28.17
2018-06-11T10:34:08.740Z,28.22
2018-06-11T10:35:09.229Z,28.4
2018-06-11T10:36:09.277Z,28.37
2018-06-11T10:37:09.236Z,28.34
2018-06-11T10:38:09.311Z,28.19
2018-06-11T10:39:09.073Z,28.21
2018-06-11T10:40:09.283Z,28.07
2018-06-11T10:41:09.279Z,28.12
2018-06-11T10:42:09.104Z,28.09
2018-06-11T10:43:09.267Z,28.15
2018-06-11T10:44:09.315Z,28.17
2018-06-11T10:45:09.053Z,28.15
2018-06-11T10:46:09.090Z,28
2018-06-11T10:47:09.317Z,27.96
2018-06-11T10:48:09.295Z,27.93
2018-06-11T10:49:09.321Z,27.88
2018-06-11T10:50:09.316Z,27.84
2018-06-11T10:51:09.313Z,27.82
2018-06-11T10:52:08.827Z,27.72
2018-06-11T10:53:09.321Z,27.63
2018-06-11T10:54:09.073Z,27.59
2018-06-11T10:55:09.336Z,27.57
2018-06-11T10:56:09.113Z,27.41
2018-06-11T10:57:09.381Z,27.22
2018-06-11T10:58:09.156Z,27.28
2018-06-11T10:59:09.344Z,27.19
2018-06-11T11:00:09.341Z,27.14
2018-06-11T11:01:09.591Z,27.09
2018-06-11T11:02:09.370Z,26.95
2018-06-11T11:03:09.393Z,26.89
2018-06-11T11:04:09.348Z,26.85
2018-06-11T11:05:09.127Z,26.82
2018-06-11T11:06:09.102Z,26.76
2018-06-11T11:07:09.400Z,26.81
2018-06-11T11:08:09.369Z,26.8
2018-06-11T11:09:09.414Z,26.8
2018-06-11T11:10:09.380Z,26.77
2018-06-11T11:11:09.402Z,26.84
2018-06-11T11:12:09.381Z,26.82
2018-06-11T11:13:09.468Z,26.88
2018-06-11T11:14:09.404Z,26.82
2018-06-11T11:15:09.422Z,26.85
2018-06-11T11:16:09.386Z,26.85
2018-06-11T11:17:09.417Z,26.89
2018-06-11T11:18:09.417Z,26.89
2018-06-11T11:19:09.438Z,26.85
2018-06-11T11:20:09.149Z,26.8
2018-06-11T11:21:09.500Z,26.62
2018-06-11T11:22:09.162Z,26.5
2018-06-11T11:23:09.465Z,26.43
2018-06-11T11:24:08.920Z,26.43
2018-06-11T11:25:09.446Z,26.35
2018-06-11T11:26:09.188Z,26.4
2018-06-11T11:27:09.192Z,26.26
2018-06-11T11:28:09.480Z,26.01
2018-06-11T11:29:09.448Z,25.99
2018-06-11T11:30:09.462Z,25.98
2018-06-11T11:31:09.242Z,26.01
2018-06-11T11:32:09.220Z,25.87
2018-06-11T11:33:09.453Z,25.87
2018-06-11T11:34:09.461Z,25.73
2018-06-11T11:35:09.448Z,25.65
2018-06-11T11:36:09.228Z,25.69
2018-06-11T11:37:09.453Z,25.62
2018-06-11T11:38:09.526Z,25.62
2018-06-11T11:39:09.453Z,25.55
2018-06-11T11:40:09.540Z,25.57
2018-06-11T11:41:09.457Z,25.45
2018-06-11T11:42:08.970Z,25.33
2018-06-11T11:43:09.491Z,25.3
2018-06-11T11:44:09.245Z,25.32
2018-06-11T11:45:09.520Z,25.33
2018-06-11T11:46:09.241Z,25.36
2018-06-11T11:47:09.528Z,25.38
2018-06-11T11:48:09.502Z,25.18
2018-06-11T11:49:09.486Z,25.14
2018-06-11T11:50:09.513Z,25.09
2018-06-11T11:51:09.315Z,24.99
2018-06-11T11:52:09.525Z,24.95
2018-06-11T11:53:09.223Z,24.95
2018-06-11T11:54:09.249Z,24.95
2018-06-11T11:55:09.538Z,24.87
2018-06-11T11:56:09.516Z,24.91
2018-06-11T11:57:09.254Z,25
2018-06-11T11:58:09.500Z,25.09
2018-06-11T11:59:09.515Z,25.03
2018-06-11T12:00:08.976Z,25.13
2018-06-11T12:01:09.009Z,25.1
2018-06-11T12:02:09.497Z,25.27
2018-06-11T12:03:09.271Z,25.18
2018-06-11T12:04:09.550Z,25.21
2018-06-11T12:05:09.505Z,25.28
2018-06-11T12:06:09.532Z,25.23
2018-06-11T12:07:09.526Z,25.28
2018-06-11T12:08:09.508Z,25.21
2018-06-11T12:09:09.552Z,25.25
2018-06-11T12:10:09.499Z,25.18
2018-06-11T12:11:09.555Z,25.3
2018-06-11T12:12:09.263Z,25.33
2018-06-11T12:13:09.557Z,25.32
2018-06-11T12:14:09.523Z,25.38
2018-06-11T12:15:09.572Z,25.32
2018-06-11T12:16:09.020Z,25.33
2018-06-11T12:17:09.526Z,25.28
2018-06-11T12:18:09.776Z,25.36
2018-06-11T12:19:09.404Z,25.3
2018-06-11T12:20:09.576Z,25.35
2018-06-11T12:21:09.267Z,25.36
2018-06-11T12:22:09.277Z,25.35
2018-06-11T12:23:09.525Z,25.21
2018-06-11T12:24:09.294Z,25.21
2018-06-11T12:25:09.719Z,25.18
2018-06-11T12:26:09.305Z,25.15
2018-06-11T12:27:09.518Z,25.08
2018-06-11T12:28:09.300Z,25.03
2018-06-11T12:29:09.586Z,24.95
2018-06-11T12:30:09.590Z,24.88
2018-06-11T12:31:09.268Z,24.73
2018-06-11T12:32:09.336Z,24.62
2018-06-11T12:33:09.279Z,24.58
2018-06-11T12:34:09.046Z,24.49
2018-06-11T12:35:09.558Z,24.6
2018-06-11T12:36:09.569Z,24.64
2018-06-11T12:37:09.579Z,24.61
2018-06-11T12:38:09.539Z,24.64
2018-06-11T12:39:09.292Z,24.67
2018-06-11T12:40:09.569Z,24.71
2018-06-11T12:41:09.316Z,24.71
2018-06-11T12:42:09.781Z,24.71
2018-06-11T12:43:09.289Z,24.73
2018-06-11T12:44:09.058Z,24.68
2018-06-11T12:45:09.558Z,24.73
2018-06-11T12:46:09.562Z,24.73
2018-06-11T12:47:09.554Z,24.81
2018-06-11T12:48:09.601Z,24.77
2018-06-11T12:49:09.574Z,24.8
2018-06-11T12:50:09.313Z,24.83
2018-06-11T12:51:09.559Z,24.8
2018-06-11T12:52:09.548Z,24.83
2018-06-11T12:53:09.575Z,24.93
2018-06-11T12:54:09.588Z,24.91
2018-06-11T12:55:09.601Z,24.88
2018-06-11T12:56:09.556Z,24.98
2018-06-11T12:57:09.582Z,24.93
2018-06-11T12:58:09.600Z,24.99